ADDS METAR Data INFO
IDs: Format: Raw Decoded Include TAF

Data at: 0754 UTC 17 Oct 2017

K1M5 170735Z AUTO 00000KT 5SM BR CLR 05/05 A3031 RMK A01
K1M5 170715Z AUTO 00000KT 5SM BR CLR 05/05 A3031 RMK A01
K1M5 170655Z AUTO 00000KT 7SM CLR 05/05 A3031 RMK A01
K1M5 170635Z AUTO 00000KT 10SM CLR 06/05 A3031 RMK A01
K1M5 170615Z AUTO 00000KT 8SM CLR 06/05 A3031 RMK A01
K1M5 170530Z AUTO 00000KT 9SM CLR 06/06 A3031 RMK A01
K1M5 170515Z AUTO 00000KT 10SM CLR 06/06 A3030 RMK A01
K1M5 170455Z AUTO 00000KT 10SM CLR 07/06 A3031 RMK A01
K1M5 170435Z AUTO 00000KT 10SM CLR 07/06 A3031 RMK A01
K1M5 170415Z AUTO 00000KT 10SM CLR 07/06 A3031 RMK A01
K1M5 170355Z AUTO 00000KT 10SM CLR 07/06 A3031 RMK A01
K1M5 170335Z AUTO 00000KT 10SM CLR 08/07 A3032 RMK A01
K1M5 170315Z AUTO 00000KT 10SM CLR 08/07 A3031 RMK A01
K1M5 170255Z AUTO 00000KT 10SM CLR 07/07 A3031 RMK A01
K1M5 170235Z AUTO 00000KT 10SM CLR 08/07 A3031 RMK A01
K1M5 170215Z AUTO 00000KT 10SM CLR 08/07 A3030 RMK A01
K1M5 170155Z AUTO 00000KT 10SM CLR 09/07 A3030 RMK A01
K1M5 170135Z AUTO 00000KT 10SM CLR 09/07 A3030 RMK A01
K1M5 170115Z AUTO 00000KT 10SM CLR 10/07 A3030 RMK A01
K1M5 170055Z AUTO 00000KT 10SM CLR 10/06 A3030 RMK A01
K1M5 170035Z AUTO 00000KT 10SM CLR 11/07 A3029 RMK A01
K1M5 170015Z AUTO 00000KT 9SM CLR 11/06 A3029 RMK A01
K1M5 162355Z AUTO 00000KT 8SM CLR 12/06 A3029 RMK A01
K1M5 162335Z AUTO 02004KT 10SM CLR 13/05 A3028 RMK A01
K1M5 162315Z AUTO 02005KT 10SM CLR 13/05 A3028 RMK A01
K1M5 162255Z AUTO 02007KT 10SM CLR 15/05 A3028 RMK A01
K1M5 162235Z AUTO 02007KT 10SM CLR 16/05 A3027 RMK A01
K1M5 162215Z AUTO 02009KT 10SM CLR 16/05 A3027 RMK A01
K1M5 162155Z AUTO 01007KT 4SM HZ CLR 17/05 A3026 RMK A01
K1M5 162135Z AUTO 03010KT 10SM CLR 17/04 A3026 RMK A01
K1M5 162115Z AUTO 03012KT 10SM FEW050 17/05 A3026 RMK A01
K1M5 162055Z AUTO 01008KT 10SM CLR 17/05 A3027 RMK A01
K1M5 162035Z AUTO 05009KT 10SM FEW050 17/05 A3027 RMK A01
K1M5 162015Z AUTO 02011KT 10SM FEW049 17/05 A3027 RMK A01
K1M5 161955Z AUTO 03006G14KT 10SM FEW049 17/05 A3027 RMK A01
K1M5 161935Z AUTO 03011G16KT 10SM CLR 17/04 A3027 RMK A01
K1M5 161915Z AUTO 36009G14KT 10SM FEW047 16/04 A3028 RMK A01
K1M5 161855Z AUTO 02007KT 10SM FEW045 17/05 A3029 RMK A01
K1M5 161835Z AUTO 01008G15KT 340V050 10SM SCT044 16/05 A3029 RMK A01
K1M5 161815Z AUTO VRB06G11KT 10SM SCT043 16/05 A3030 RMK A01
K1M5 161755Z AUTO 03010G17KT 10SM FEW042 16/05 A3032 RMK A01
K1M5 161735Z AUTO 36009KT 10SM SCT040 16/06 A3032 RMK A01
K1M5 161715Z AUTO 02009G14KT 10SM SCT038 15/06 A3033 RMK A01
K1M5 161655Z AUTO 02009KT 350V050 10SM SCT037 16/06 A3033 RMK A01
K1M5 161635Z AUTO 02010G17KT 10SM SCT036 15/06 A3033 RMK A01
K1M5 161615Z AUTO 01008G17KT 10SM SCT032 SCT037 15/06 A3033 RMK A01
K1M5 161555Z AUTO 36010KT 10SM BKN031 OVC040 14/06 A3033 RMK A01
K1M5 161535Z AUTO 35008KT 10SM BKN028 BKN033 OVC042 14/07 A3033 RMK A01
K1M5 161515Z AUTO 04008G13KT 10SM SCT027 14/07 A3033 RMK A01
K1M5 161455Z AUTO 03011KT 10SM CLR 13/07 A3033 RMK A01
K1M5 161435Z AUTO 03009G17KT 10SM CLR 12/07 A3032 RMK A01
K1M5 161415Z AUTO 02012KT 10SM CLR 12/07 A3032 RMK A01
K1M5 161355Z AUTO 02010KT 10SM CLR 11/07 A3032 RMK A01
K1M5 161335Z AUTO 01007KT 10SM CLR 11/07 A3032 RMK A01
K1M5 161315Z AUTO 01008KT 10SM CLR 10/07 A3032 RMK A01
K1M5 161255Z AUTO 35006KT 10SM CLR 09/07 A3031 RMK A01
K1M5 161235Z AUTO 35005KT 10SM CLR 09/07 A3030 RMK A01
K1M5 161215Z AUTO 35004KT 10SM CLR 08/07 A3029 RMK A01
K1M5 161155Z AUTO 35005KT 10SM CLR 08/07 A3029 RMK A01
K1M5 161135Z AUTO 35004KT 10SM BKN041 08/07 A3028 RMK A01
K1M5 161115Z AUTO 35004KT 10SM OVC040 09/07 A3027 RMK A01
K1M5 161055Z AUTO 35004KT 10SM OVC039 08/06 A3027 RMK A01
K1M5 161035Z AUTO 00000KT 9SM BKN038 08/06 A3026 RMK A01
K1M5 161015Z AUTO 00000KT 8SM SCT039 09/06 A3026 RMK A01
K1M5 160955Z AUTO 35003KT 10SM SCT039 09/06 A3026 RMK A01
K1M5 160935Z AUTO 36004KT 10SM BKN038 10/05 A3025 RMK A01
K1M5 160915Z AUTO 36004KT 10SM OVC037 10/05 A3025 RMK A01
K1M5 160855Z AUTO 36006KT 10SM OVC036 11/06 A3024 RMK A01
K1M5 160835Z AUTO 01006KT 10SM OVC035 11/06 A3024 RMK A01
K1M5 160425Z AUTO 36008G15KT 10SM OVC028 12/07 A3024 RMK A01
K1M5 160415Z AUTO 36012KT 340V050 10SM OVC028 12/07 A3024 RMK A01
K1M5 160355Z AUTO 01010G18KT 10SM OVC028 12/07 A3024 RMK A01
K1M5 160335Z AUTO 01008G20KT 10SM OVC029 12/07 A3023 RMK A01
K1M5 160315Z AUTO 35012G18KT 10SM OVC029 12/08 A3023 RMK A01
K1M5 160255Z AUTO 36011KT 10SM OVC030 12/08 A3023 RMK A01
K1M5 160235Z AUTO 36009G17KT 10SM OVC029 12/08 A3022 RMK A01
K1M5 160215Z AUTO 36009KT 10SM OVC029 12/09 A3022 RMK A01
K1M5 160155Z AUTO 01009G16KT 10SM OVC026 12/09 A3021 RMK A01
K1M5 160135Z AUTO 36008KT 10SM OVC025 12/09 A3020 RMK A01
K1M5 160115Z AUTO 36010KT 10SM OVC024 12/09 A3019 RMK A01
K1M5 160055Z AUTO 01013G19KT 10SM BKN022 12/09 A3018 RMK A01
K1M5 160035Z AUTO 36012G17KT 10SM OVC019 13/10 A3017 RMK A01
K1M5 160015Z AUTO 35009G17KT 10SM OVC019 13/11 A3015 RMK A01
K1M5 152355Z AUTO 35009G15KT 10SM OVC020 13/11 A3015 RMK A01
K1M5 152335Z AUTO 34008KT 10SM BKN018 BKN022 OVC075 13/11 A3014 RMK A01
K1M5 152315Z AUTO 34011KT 9SM FEW016 BKN020 SCT050 13/11 A3013 RMK A01
K1M5 152255Z AUTO 35015KT 10SM SCT012 BKN021 OVC060 13/11 A3012 RMK A01 P0002
K1M5 152235Z AUTO 36011G18KT 6SM BR OVC011 14/13 A3010 RMK A01
K1M5 152215Z AUTO 34008KT 3SM BR BKN011 OVC033 15/14 A3009 RMK A01
K1M5 152155Z AUTO 33007G12KT 4SM BR FEW009 BKN032 OVC037 15/14 A3009 RMK A01 P0001
K1M5 152135Z AUTO 33006KT 3SM BR OVC029 15/14 A3008 RMK A01
K1M5 152115Z AUTO 34010G16KT 10SM FEW016 OVC027 16/13 A3007 RMK A01
K1M5 152055Z AUTO 33010G17KT 10SM BKN016 OVC024 17/14 A3007 RMK A01
K1M5 152035Z AUTO 34011KT 10SM BKN021 BKN042 BKN055 18/14 A3006 RMK A01
K1M5 152015Z AUTO 33011G23KT 9SM FEW021 FEW034 BKN048 19/14 A3005 RMK A01
K1M5 151955Z AUTO 34019G25KT 8SM FEW029 SCT035 OVC055 20/15 A3003 RMK A01